sensor_id;sensor_type;location;lat;lon;timestamp;temperature;humidity
21770;DHT22;11046;49.558;8.674;2022-11-13T00:03:05;5.80;99.90
21770;DHT22;11046;49.558;8.674;2022-11-13T00:06:24;5.80;99.90
21770;DHT22;11046;49.558;8.674;2022-11-13T00:09:43;5.80;99.90
21770;DHT22;11046;49.558;8.674;2022-11-13T00:13:02;5.80;99.90
21770;DHT22;11046;49.558;8.674;2022-11-13T00:16:21;5.70;99.90
21770;DHT22;11046;49.558;8.674;2022-11-13T00:19:40;5.60;99.90
21770;DHT22;11046;49.558;8.674;2022-11-13T00:22:59;5.60;99.90
21770;DHT22;11046;49.558;8.674;2022-11-13T00:26:21;5.60;99.90
21770;DHT22;11046;49.558;8.674;2022-11-13T00:29:40;5.60;99.90
21770;DHT22;11046;49.558;8.674;2022-11-13T00:32:59;5.60;99.90
21770;DHT22;11046;49.558;8.674;2022-11-13T00:36:23;5.60;99.90
21770;DHT22;11046;49.558;8.674;2022-11-13T00:39:45;5.60;99.90
21770;DHT22;11046;49.558;8.674;2022-11-13T00:43:05;5.60;99.90
21770;DHT22;11046;49.558;8.674;2022-11-13T00:46:24;5.60;99.90
21770;DHT22;11046;49.558;8.674;2022-11-13T00:49:46;5.60;99.90
21770;DHT22;11046;49.558;8.674;2022-11-13T00:53:05;5.60;99.90
21770;DHT22;11046;49.558;8.674;2022-11-13T00:56:25;5.60;99.90
21770;DHT22;11046;49.558;8.674;2022-11-13T00:59:44;5.70;99.90
21770;DHT22;11046;49.558;8.674;2022-11-13T01:03:03;5.90;99.90
21770;DHT22;11046;49.558;8.674;2022-11-13T01:06:25;5.90;99.90
21770;DHT22;11046;49.558;8.674;2022-11-13T01:09:49;5.90;99.90
21770;DHT22;11046;49.558;8.674;2022-11-13T01:13:08;5.80;99.90
21770;DHT22;11046;49.558;8.674;2022-11-13T01:16:28;5.80;99.90
21770;DHT22;11046;49.558;8.674;2022-11-13T01:19:48;5.90;99.90
21770;DHT22;11046;49.558;8.674;2022-11-13T01:23:07;5.90;99.90
21770;DHT22;11046;49.558;8.674;2022-11-13T01:26:29;6.00;99.90
21770;DHT22;11046;49.558;8.674;2022-11-13T01:29:48;6.00;99.90
21770;DHT22;11046;49.558;8.674;2022-11-13T01:33:07;6.00;99.90
21770;DHT22;11046;49.558;8.674;2022-11-13T01:36:27;6.00;99.90
21770;DHT22;11046;49.558;8.674;2022-11-13T01:39:46;5.90;99.90
21770;DHT22;11046;49.558;8.674;2022-11-13T01:43:27;5.90;99.90
21770;DHT22;11046;49.558;8.674;2022-11-13T01:46:52;5.80;99.90
21770;DHT22;11046;49.558;8.674;2022-11-13T01:50:13;5.90;99.90
21770;DHT22;11046;49.558;8.674;2022-11-13T01:53:33;5.90;99.90
21770;DHT22;11046;49.558;8.674;2022-11-13T01:56:53;6.00;99.90
21770;DHT22;11046;49.558;8.674;2022-11-13T02:00:13;5.90;99.90
21770;DHT22;11046;49.558;8.674;2022-11-13T02:03:33;5.90;99.90
21770;DHT22;11046;49.558;8.674;2022-11-13T02:06:55;5.90;99.90
21770;DHT22;11046;49.558;8.674;2022-11-13T02:10:15;5.80;99.90
21770;DHT22;11046;49.558;8.674;2022-11-13T02:13:34;5.80;99.90
21770;DHT22;11046;49.558;8.674;2022-11-13T02:16:59;5.80;99.90
21770;DHT22;11046;49.558;8.674;2022-11-13T02:27:45;5.70;99.90
21770;DHT22;11046;49.558;8.674;2022-11-13T02:31:09;5.60;99.90
21770;DHT22;11046;49.558;8.674;2022-11-13T02:34:31;5.60;99.90
21770;DHT22;11046;49.558;8.674;2022-11-13T02:37:50;5.60;99.90
21770;DHT22;11046;49.558;8.674;2022-11-13T02:41:09;5.60;99.90
21770;DHT22;11046;49.558;8.674;2022-11-13T02:44:28;5.60;99.90
21770;DHT22;11046;49.558;8.674;2022-11-13T02:47:47;5.50;99.90
21770;DHT22;11046;49.558;8.674;2022-11-13T02:51:07;5.40;99.90
21770;DHT22;11046;49.558;8.674;2022-11-13T02:54:27;5.20;99.90
21770;DHT22;11046;49.558;8.674;2022-11-13T02:57:45;5.10;99.90
21770;DHT22;11046;49.558;8.674;2022-11-13T03:01:05;5.10;99.90
21770;DHT22;11046;49.558;8.674;2022-11-13T03:04:24;5.10;99.90
21770;DHT22;11046;49.558;8.674;2022-11-13T03:07:43;5.10;99.90
21770;DHT22;11046;49.558;8.674;2022-11-13T03:11:07;5.10;99.90
21770;DHT22;11046;49.558;8.674;2022-11-13T03:14:26;5.10;99.90
21770;DHT22;11046;49.558;8.674;2022-11-13T03:17:46;5.10;99.90
21770;DHT22;11046;49.558;8.674;2022-11-13T03:21:10;5.00;99.90
21770;DHT22;11046;49.558;8.674;2022-11-13T03:24:32;4.90;99.90
21770;DHT22;11046;49.558;8.674;2022-11-13T03:27:51;4.90;99.90
21770;DHT22;11046;49.558;8.674;2022-11-13T03:31:11;4.90;99.90
21770;DHT22;11046;49.558;8.674;2022-11-13T03:34:31;4.90;99.90
21770;DHT22;11046;49.558;8.674;2022-11-13T03:37:50;4.90;99.90
21770;DHT22;11046;49.558;8.674;2022-11-13T03:41:09;4.90;99.90
21770;DHT22;11046;49.558;8.674;2022-11-13T03:44:28;4.90;99.90
21770;DHT22;11046;49.558;8.674;2022-11-13T03:47:47;4.80;99.90
21770;DHT22;11046;49.558;8.674;2022-11-13T03:51:07;4.70;99.90
21770;DHT22;11046;49.558;8.674;2022-11-13T03:54:26;4.60;99.90
21770;DHT22;11046;49.558;8.674;2022-11-13T03:57:48;4.60;99.90
21770;DHT22;11046;49.558;8.674;2022-11-13T04:01:07;4.50;99.90
21770;DHT22;11046;49.558;8.674;2022-11-13T04:04:26;4.50;99.90
21770;DHT22;11046;49.558;8.674;2022-11-13T04:07:46;4.60;99.90
21770;DHT22;11046;49.558;8.674;2022-11-13T04:11:10;4.70;99.90
21770;DHT22;11046;49.558;8.674;2022-11-13T04:14:32;4.80;99.90
21770;DHT22;11046;49.558;8.674;2022-11-13T04:17:51;4.80;99.90
21770;DHT22;11046;49.558;8.674;2022-11-13T04:21:10;4.70;99.90
21770;DHT22;11046;49.558;8.674;2022-11-13T04:24:29;4.60;99.90
21770;DHT22;11046;49.558;8.674;2022-11-13T04:27:49;4.40;99.90
21770;DHT22;11046;49.558;8.674;2022-11-13T04:31:12;4.30;99.90
21770;DHT22;11046;49.558;8.674;2022-11-13T04:34:31;4.20;99.90
21770;DHT22;11046;49.558;8.674;2022-11-13T04:37:50;4.10;99.90
21770;DHT22;11046;49.558;8.674;2022-11-13T04:41:11;4.10;99.90
21770;DHT22;11046;49.558;8.674;2022-11-13T04:44:50;4.10;99.90
21770;DHT22;11046;49.558;8.674;2022-11-13T04:48:09;4.00;99.90
21770;DHT22;11046;49.558;8.674;2022-11-13T04:51:28;3.90;99.90
21770;DHT22;11046;49.558;8.674;2022-11-13T04:54:47;3.90;99.90
21770;DHT22;11046;49.558;8.674;2022-11-13T04:58:06;3.90;99.90
21770;DHT22;11046;49.558;8.674;2022-11-13T05:01:25;4.00;99.90
21770;DHT22;11046;49.558;8.674;2022-11-13T05:04:44;4.00;99.90
21770;DHT22;11046;49.558;8.674;2022-11-13T05:08:03;4.00;99.90
21770;DHT22;11046;49.558;8.674;2022-11-13T05:11:22;3.90;99.90
21770;DHT22;11046;49.558;8.674;2022-11-13T05:14:41;3.90;99.90
21770;DHT22;11046;49.558;8.674;2022-11-13T05:18:00;3.90;99.90
21770;DHT22;11046;49.558;8.674;2022-11-13T05:21:19;3.90;99.90
21770;DHT22;11046;49.558;8.674;2022-11-13T05:24:38;3.90;99.90
21770;DHT22;11046;49.558;8.674;2022-11-13T05:27:58;3.80;99.90
21770;DHT22;11046;49.558;8.674;2022-11-13T05:31:17;3.80;99.90
21770;DHT22;11046;49.558;8.674;2022-11-13T05:34:36;3.90;99.90
21770;DHT22;11046;49.558;8.674;2022-11-13T05:37:59;3.90;99.90
21770;DHT22;11046;49.558;8.674;2022-11-13T05:41:20;3.90;99.90
21770;DHT22;11046;49.558;8.674;2022-11-13T05:44:39;3.90;99.90
21770;DHT22;11046;49.558;8.674;2022-11-13T05:47:58;3.90;99.90
21770;DHT22;11046;49.558;8.674;2022-11-13T05:51:20;3.90;99.90
21770;DHT22;11046;49.558;8.674;2022-11-13T05:54:39;3.90;99.90
21770;DHT22;11046;49.558;8.674;2022-11-13T05:57:59;3.90;99.90
21770;DHT22;11046;49.558;8.674;2022-11-13T06:01:25;4.00;99.90
21770;DHT22;11046;49.558;8.674;2022-11-13T06:04:47;4.00;99.90
21770;DHT22;11046;49.558;8.674;2022-11-13T06:08:07;4.10;99.90
21770;DHT22;11046;49.558;8.674;2022-11-13T06:11:28;4.20;99.90
21770;DHT22;11046;49.558;8.674;2022-11-13T06:14:47;4.10;99.90
21770;DHT22;11046;49.558;8.674;2022-11-13T06:18:06;4.10;99.90
21770;DHT22;11046;49.558;8.674;2022-11-13T06:21:27;4.10;99.90
21770;DHT22;11046;49.558;8.674;2022-11-13T06:24:47;4.20;99.90
21770;DHT22;11046;49.558;8.674;2022-11-13T06:28:06;4.10;99.90
21770;DHT22;11046;49.558;8.674;2022-11-13T06:31:27;4.10;99.90
21770;DHT22;11046;49.558;8.674;2022-11-13T06:34:47;4.10;99.90
21770;DHT22;11046;49.558;8.674;2022-11-13T06:38:06;4.10;99.90
21770;DHT22;11046;49.558;8.674;2022-11-13T06:41:27;4.10;99.90
21770;DHT22;11046;49.558;8.674;2022-11-13T06:44:50;4.10;99.90
21770;DHT22;11046;49.558;8.674;2022-11-13T06:48:09;4.10;99.90
21770;DHT22;11046;49.558;8.674;2022-11-13T06:51:29;4.10;99.90
21770;DHT22;11046;49.558;8.674;2022-11-13T06:54:49;4.00;99.90
21770;DHT22;11046;49.558;8.674;2022-11-13T06:58:08;4.00;99.90
21770;DHT22;11046;49.558;8.674;2022-11-13T07:01:27;3.90;99.90
21770;DHT22;11046;49.558;8.674;2022-11-13T07:04:46;3.90;99.90
21770;DHT22;11046;49.558;8.674;2022-11-13T07:08:05;3.90;99.90
21770;DHT22;11046;49.558;8.674;2022-11-13T07:11:24;4.00;99.90
21770;DHT22;11046;49.558;8.674;2022-11-13T07:14:43;3.90;99.90
21770;DHT22;11046;49.558;8.674;2022-11-13T07:18:04;3.90;99.90
21770;DHT22;11046;49.558;8.674;2022-11-13T07:21:23;3.90;99.90
21770;DHT22;11046;49.558;8.674;2022-11-13T07:24:44;3.80;99.90
21770;DHT22;11046;49.558;8.674;2022-11-13T07:28:08;3.90;99.90
21770;DHT22;11046;49.558;8.674;2022-11-13T07:31:28;3.90;99.90
21770;DHT22;11046;49.558;8.674;2022-11-13T07:34:47;3.80;99.90
21770;DHT22;11046;49.558;8.674;2022-11-13T07:38:07;3.80;99.90
21770;DHT22;11046;49.558;8.674;2022-11-13T07:41:26;3.70;99.90
21770;DHT22;11046;49.558;8.674;2022-11-13T07:44:45;3.80;99.90
21770;DHT22;11046;49.558;8.674;2022-11-13T07:48:05;3.80;99.90
21770;DHT22;11046;49.558;8.674;2022-11-13T07:51:26;3.90;99.90
21770;DHT22;11046;49.558;8.674;2022-11-13T07:54:47;4.00;99.90
21770;DHT22;11046;49.558;8.674;2022-11-13T07:58:06;4.10;99.90
21770;DHT22;11046;49.558;8.674;2022-11-13T08:01:26;4.10;99.90
21770;DHT22;11046;49.558;8.674;2022-11-13T08:04:46;4.30;99.90
21770;DHT22;11046;49.558;8.674;2022-11-13T08:08:05;4.20;99.90
21770;DHT22;11046;49.558;8.674;2022-11-13T08:11:25;4.20;99.90
21770;DHT22;11046;49.558;8.674;2022-11-13T08:14:44;4.30;99.90
21770;DHT22;11046;49.558;8.674;2022-11-13T08:18:04;4.30;99.90
21770;DHT22;11046;49.558;8.674;2022-11-13T08:21:24;4.50;99.90
21770;DHT22;11046;49.558;8.674;2022-11-13T08:24:44;4.50;99.90
21770;DHT22;11046;49.558;8.674;2022-11-13T08:28:04;4.70;99.90
21770;DHT22;11046;49.558;8.674;2022-11-13T08:31:24;4.80;99.90
21770;DHT22;11046;49.558;8.674;2022-11-13T08:34:43;4.80;99.90
21770;DHT22;11046;49.558;8.674;2022-11-13T08:38:04;4.90;99.90
21770;DHT22;11046;49.558;8.674;2022-11-13T08:41:24;4.90;99.90
21770;DHT22;11046;49.558;8.674;2022-11-13T08:44:43;5.10;99.90
21770;DHT22;11046;49.558;8.674;2022-11-13T08:48:03;5.20;99.90
21770;DHT22;11046;49.558;8.674;2022-11-13T08:51:23;5.20;99.90
21770;DHT22;11046;49.558;8.674;2022-11-13T08:54:42;5.20;99.90
21770;DHT22;11046;49.558;8.674;2022-11-13T08:58:02;5.10;99.90
21770;DHT22;11046;49.558;8.674;2022-11-13T09:01:22;5.10;99.90
21770;DHT22;11046;49.558;8.674;2022-11-13T09:04:42;5.10;99.90
21770;DHT22;11046;49.558;8.674;2022-11-13T09:08:07;5.10;99.90
21770;DHT22;11046;49.558;8.674;2022-11-13T09:11:28;5.10;99.90
21770;DHT22;11046;49.558;8.674;2022-11-13T09:14:48;5.20;99.90
21770;DHT22;11046;49.558;8.674;2022-11-13T09:18:09;5.30;99.90
21770;DHT22;11046;49.558;8.674;2022-11-13T09:21:28;5.30;99.90
21770;DHT22;11046;49.558;8.674;2022-11-13T09:24:47;5.30;99.90
21770;DHT22;11046;49.558;8.674;2022-11-13T09:28:08;5.40;99.90
21770;DHT22;11046;49.558;8.674;2022-11-13T09:31:28;5.40;99.90
21770;DHT22;11046;49.558;8.674;2022-11-13T09:34:47;5.50;99.90
21770;DHT22;11046;49.558;8.674;2022-11-13T09:38:07;5.60;99.90
21770;DHT22;11046;49.558;8.674;2022-11-13T09:41:30;5.60;99.90
21770;DHT22;11046;49.558;8.674;2022-11-13T09:45:10;5.60;99.90
21770;DHT22;11046;49.558;8.674;2022-11-13T09:48:39;5.80;99.90
21770;DHT22;11046;49.558;8.674;2022-11-13T09:52:04;6.00;99.90
21770;DHT22;11046;49.558;8.674;2022-11-13T09:55:28;6.00;99.90
21770;DHT22;11046;49.558;8.674;2022-11-13T09:58:53;6.20;99.90
21770;DHT22;11046;49.558;8.674;2022-11-13T10:02:26;6.30;99.90
21770;DHT22;11046;49.558;8.674;2022-11-13T10:06:09;6.40;99.90
21770;DHT22;11046;49.558;8.674;2022-11-13T10:13:30;6.50;99.90
21770;DHT22;11046;49.558;8.674;2022-11-13T10:21:00;6.70;99.90
21770;DHT22;11046;49.558;8.674;2022-11-13T10:24:24;6.70;99.90
21770;DHT22;11046;49.558;8.674;2022-11-13T10:27:54;6.80;99.90
21770;DHT22;11046;49.558;8.674;2022-11-13T10:31:17;7.00;99.90
21770;DHT22;11046;49.558;8.674;2022-11-13T10:34:36;7.00;99.90
21770;DHT22;11046;49.558;8.674;2022-11-13T10:38:06;7.00;99.90
21770;DHT22;11046;49.558;8.674;2022-11-13T10:41:30;7.10;99.90
21770;DHT22;11046;49.558;8.674;2022-11-13T10:44:55;7.10;99.90
21770;DHT22;11046;49.558;8.674;2022-11-13T10:51:56;7.30;99.90
21770;DHT22;11046;49.558;8.674;2022-11-13T10:55:46;7.40;99.90
21770;DHT22;11046;49.558;8.674;2022-11-13T10:59:14;7.30;99.90
21770;DHT22;11046;49.558;8.674;2022-11-13T11:02:34;7.40;99.90
21770;DHT22;11046;49.558;8.674;2022-11-13T11:05:59;7.50;99.90
21770;DHT22;11046;49.558;8.674;2022-11-13T11:09:26;7.60;99.90
21770;DHT22;11046;49.558;8.674;2022-11-13T11:12:53;7.70;99.90
21770;DHT22;11046;49.558;8.674;2022-11-13T11:16:20;7.70;99.90
21770;DHT22;11046;49.558;8.674;2022-11-13T11:19:56;7.70;99.90
21770;DHT22;11046;49.558;8.674;2022-11-13T11:27:20;7.80;99.90
21770;DHT22;11046;49.558;8.674;2022-11-13T11:30:57;7.70;99.90
21770;DHT22;11046;49.558;8.674;2022-11-13T11:34:29;7.70;99.90
21770;DHT22;11046;49.558;8.674;2022-11-13T11:41:11;7.70;99.90
21770;DHT22;11046;49.558;8.674;2022-11-13T11:44:53;7.80;99.90
21770;DHT22;11046;49.558;8.674;2022-11-13T11:48:16;7.70;99.90
21770;DHT22;11046;49.558;8.674;2022-11-13T12:14:08;7.50;99.90
21770;DHT22;11046;49.558;8.674;2022-11-13T12:32:00;8.20;99.90
21770;DHT22;11046;49.558;8.674;2022-11-13T12:35:24;8.10;99.90
21770;DHT22;11046;49.558;8.674;2022-11-13T12:45:50;8.20;99.90
21770;DHT22;11046;49.558;8.674;2022-11-13T12:52:40;8.30;99.90
21770;DHT22;11046;49.558;8.674;2022-11-13T12:56:01;8.30;99.90
21770;DHT22;11046;49.558;8.674;2022-11-13T13:10:17;8.40;99.90
21770;DHT22;11046;49.558;8.674;2022-11-13T13:17:24;8.40;99.90
21770;DHT22;11046;49.558;8.674;2022-11-13T13:24:33;8.60;99.90
21770;DHT22;11046;49.558;8.674;2022-11-13T13:27:58;8.60;99.90
21770;DHT22;11046;49.558;8.674;2022-11-13T13:31:37;8.60;99.90
21770;DHT22;11046;49.558;8.674;2022-11-13T13:35:11;8.70;99.90
21770;DHT22;11046;49.558;8.674;2022-11-13T13:42:31;8.70;99.90
21770;DHT22;11046;49.558;8.674;2022-11-13T13:49:21;8.80;99.90
21770;DHT22;11046;49.558;8.674;2022-11-13T13:52:41;8.80;99.90
21770;DHT22;11046;49.558;8.674;2022-11-13T13:56:03;8.80;99.90
21770;DHT22;11046;49.558;8.674;2022-11-13T13:59:33;8.80;99.90
21770;DHT22;11046;49.558;8.674;2022-11-13T14:02:53;8.80;99.90
21770;DHT22;11046;49.558;8.674;2022-11-13T14:06:22;8.90;99.90
21770;DHT22;11046;49.558;8.674;2022-11-13T14:09:42;8.90;99.90
21770;DHT22;11046;49.558;8.674;2022-11-13T14:13:02;8.90;99.90
21770;DHT22;11046;49.558;8.674;2022-11-13T14:16:21;8.90;99.90
21770;DHT22;11046;49.558;8.674;2022-11-13T14:19:48;9.00;99.90
21770;DHT22;11046;49.558;8.674;2022-11-13T14:23:16;9.00;99.90
21770;DHT22;11046;49.558;8.674;2022-11-13T14:26:36;9.10;99.90
21770;DHT22;11046;49.558;8.674;2022-11-13T14:30:00;9.10;99.90
21770;DHT22;11046;49.558;8.674;2022-11-13T14:33:37;9.10;99.90
21770;DHT22;11046;49.558;8.674;2022-11-13T14:40:45;9.10;99.90
21770;DHT22;11046;49.558;8.674;2022-11-13T14:44:05;9.10;99.90
21770;DHT22;11046;49.558;8.674;2022-11-13T14:47:27;9.10;99.90
21770;DHT22;11046;49.558;8.674;2022-11-13T14:50:56;9.10;99.90
21770;DHT22;11046;49.558;8.674;2022-11-13T14:54:36;9.00;99.90
21770;DHT22;11046;49.558;8.674;2022-11-13T14:57:56;9.00;99.90
21770;DHT22;11046;49.558;8.674;2022-11-13T15:01:19;9.00;99.90
21770;DHT22;11046;49.558;8.674;2022-11-13T15:04:39;8.90;99.90
21770;DHT22;11046;49.558;8.674;2022-11-13T15:07:58;8.90;99.90
21770;DHT22;11046;49.558;8.674;2022-11-13T15:11:21;8.80;99.90
21770;DHT22;11046;49.558;8.674;2022-11-13T15:14:41;8.70;99.90
21770;DHT22;11046;49.558;8.674;2022-11-13T15:18:00;8.70;99.90
21770;DHT22;11046;49.558;8.674;2022-11-13T15:21:20;8.60;99.90
21770;DHT22;11046;49.558;8.674;2022-11-13T15:24:40;8.50;99.90
21770;DHT22;11046;49.558;8.674;2022-11-13T15:27:59;8.40;99.90
21770;DHT22;11046;49.558;8.674;2022-11-13T15:31:21;8.30;99.90
21770;DHT22;11046;49.558;8.674;2022-11-13T15:34:41;8.30;99.90
21770;DHT22;11046;49.558;8.674;2022-11-13T15:38:00;8.20;99.90
21770;DHT22;11046;49.558;8.674;2022-11-13T15:41:21;8.20;99.90
21770;DHT22;11046;49.558;8.674;2022-11-13T15:44:41;8.10;99.90
21770;DHT22;11046;49.558;8.674;2022-11-13T15:48:00;8.10;99.90
21770;DHT22;11046;49.558;8.674;2022-11-13T15:51:31;8.00;99.90
21770;DHT22;11046;49.558;8.674;2022-11-13T15:54:52;7.90;99.90
21770;DHT22;11046;49.558;8.674;2022-11-13T15:58:14;7.90;99.90
21770;DHT22;11046;49.558;8.674;2022-11-13T16:01:34;7.80;99.90
21770;DHT22;11046;49.558;8.674;2022-11-13T16:04:53;7.70;99.90
21770;DHT22;11046;49.558;8.674;2022-11-13T16:08:14;7.60;99.90
21770;DHT22;11046;49.558;8.674;2022-11-13T16:11:34;7.50;99.90
21770;DHT22;11046;49.558;8.674;2022-11-13T16:14:53;7.40;99.90
21770;DHT22;11046;49.558;8.674;2022-11-13T16:18:22;7.30;99.90
21770;DHT22;11046;49.558;8.674;2022-11-13T16:21:41;7.30;99.90
21770;DHT22;11046;49.558;8.674;2022-11-13T16:25:00;7.20;99.90
21770;DHT22;11046;49.558;8.674;2022-11-13T16:28:20;7.10;99.90
21770;DHT22;11046;49.558;8.674;2022-11-13T16:31:39;7.00;99.90
21770;DHT22;11046;49.558;8.674;2022-11-13T16:34:59;7.00;99.90
21770;DHT22;11046;49.558;8.674;2022-11-13T16:38:18;7.00;99.90
21770;DHT22;11046;49.558;8.674;2022-11-13T16:41:37;7.10;99.90
21770;DHT22;11046;49.558;8.674;2022-11-13T16:44:56;7.10;99.90
21770;DHT22;11046;49.558;8.674;2022-11-13T16:48:15;7.00;99.90
21770;DHT22;11046;49.558;8.674;2022-11-13T16:51:35;6.90;99.90
21770;DHT22;11046;49.558;8.674;2022-11-13T16:54:54;6.90;99.90
21770;DHT22;11046;49.558;8.674;2022-11-13T16:58:14;6.90;99.90
21770;DHT22;11046;49.558;8.674;2022-11-13T17:01:33;6.90;99.90
21770;DHT22;11046;49.558;8.674;2022-11-13T17:04:54;6.70;99.90
21770;DHT22;11046;49.558;8.674;2022-11-13T17:08:14;6.70;99.90
21770;DHT22;11046;49.558;8.674;2022-11-13T17:11:33;6.60;99.90
21770;DHT22;11046;49.558;8.674;2022-11-13T17:14:52;6.50;99.90
21770;DHT22;11046;49.558;8.674;2022-11-13T17:18:11;6.40;99.90
21770;DHT22;11046;49.558;8.674;2022-11-13T17:21:30;6.40;99.90
21770;DHT22;11046;49.558;8.674;2022-11-13T17:24:49;6.30;99.90
21770;DHT22;11046;49.558;8.674;2022-11-13T17:28:09;6.30;99.90
21770;DHT22;11046;49.558;8.674;2022-11-13T17:31:28;6.20;99.90
21770;DHT22;11046;49.558;8.674;2022-11-13T17:34:47;6.20;99.90
21770;DHT22;11046;49.558;8.674;2022-11-13T17:38:06;6.20;99.90
21770;DHT22;11046;49.558;8.674;2022-11-13T17:41:25;6.10;99.90
21770;DHT22;11046;49.558;8.674;2022-11-13T17:44:44;6.10;99.90
21770;DHT22;11046;49.558;8.674;2022-11-13T17:48:04;6.00;99.90
21770;DHT22;11046;49.558;8.674;2022-11-13T17:51:24;5.90;99.90
21770;DHT22;11046;49.558;8.674;2022-11-13T17:54:43;5.90;99.90
21770;DHT22;11046;49.558;8.674;2022-11-13T17:58:02;5.80;99.90
21770;DHT22;11046;49.558;8.674;2022-11-13T18:01:21;5.70;99.90
21770;DHT22;11046;49.558;8.674;2022-11-13T18:04:41;5.70;99.90
21770;DHT22;11046;49.558;8.674;2022-11-13T18:08:00;5.70;99.90
21770;DHT22;11046;49.558;8.674;2022-11-13T18:11:21;5.60;99.90
21770;DHT22;11046;49.558;8.674;2022-11-13T18:14:41;5.50;99.90
21770;DHT22;11046;49.558;8.674;2022-11-13T18:18:00;5.50;99.90
21770;DHT22;11046;49.558;8.674;2022-11-13T18:21:26;5.40;99.90
21770;DHT22;11046;49.558;8.674;2022-11-13T18:24:46;5.30;99.90
21770;DHT22;11046;49.558;8.674;2022-11-13T18:28:05;5.30;99.90
21770;DHT22;11046;49.558;8.674;2022-11-13T18:31:24;5.30;99.90
21770;DHT22;11046;49.558;8.674;2022-11-13T18:34:43;5.30;99.90
21770;DHT22;11046;49.558;8.674;2022-11-13T18:38:03;5.20;99.90
21770;DHT22;11046;49.558;8.674;2022-11-13T18:41:22;5.20;99.90
21770;DHT22;11046;49.558;8.674;2022-11-13T18:44:42;5.20;99.90
21770;DHT22;11046;49.558;8.674;2022-11-13T18:48:01;5.10;99.90
21770;DHT22;11046;49.558;8.674;2022-11-13T18:51:25;5.10;99.90
21770;DHT22;11046;49.558;8.674;2022-11-13T18:54:45;5.10;99.90
21770;DHT22;11046;49.558;8.674;2022-11-13T18:58:05;5.20;99.90
21770;DHT22;11046;49.558;8.674;2022-11-13T19:01:26;5.30;99.90
21770;DHT22;11046;49.558;8.674;2022-11-13T19:04:46;5.40;99.90
21770;DHT22;11046;49.558;8.674;2022-11-13T19:08:05;5.50;99.90
21770;DHT22;11046;49.558;8.674;2022-11-13T19:11:25;5.50;99.90
21770;DHT22;11046;49.558;8.674;2022-11-13T19:14:45;5.50;99.90
21770;DHT22;11046;49.558;8.674;2022-11-13T19:18:05;5.60;99.90
21770;DHT22;11046;49.558;8.674;2022-11-13T19:21:28;5.60;99.90
21770;DHT22;11046;49.558;8.674;2022-11-13T19:24:47;5.60;99.90
21770;DHT22;11046;49.558;8.674;2022-11-13T19:28:06;5.60;99.90
21770;DHT22;11046;49.558;8.674;2022-11-13T19:31:26;5.60;99.90
21770;DHT22;11046;49.558;8.674;2022-11-13T19:34:46;5.50;99.90
21770;DHT22;11046;49.558;8.674;2022-11-13T19:38:05;5.40;99.90
21770;DHT22;11046;49.558;8.674;2022-11-13T19:41:25;5.40;99.90
21770;DHT22;11046;49.558;8.674;2022-11-13T19:44:45;5.30;99.90
21770;DHT22;11046;49.558;8.674;2022-11-13T19:48:05;5.30;99.90
21770;DHT22;11046;49.558;8.674;2022-11-13T19:51:24;5.30;99.90
21770;DHT22;11046;49.558;8.674;2022-11-13T19:54:44;5.40;99.90
21770;DHT22;11046;49.558;8.674;2022-11-13T19:58:03;5.40;99.90
21770;DHT22;11046;49.558;8.674;2022-11-13T20:01:25;5.50;99.90
21770;DHT22;11046;49.558;8.674;2022-11-13T20:04:44;5.50;99.90
21770;DHT22;11046;49.558;8.674;2022-11-13T20:08:03;5.50;99.90
21770;DHT22;11046;49.558;8.674;2022-11-13T20:11:22;5.50;99.90
21770;DHT22;11046;49.558;8.674;2022-11-13T20:14:42;5.50;99.90
21770;DHT22;11046;49.558;8.674;2022-11-13T20:18:01;5.50;99.90
21770;DHT22;11046;49.558;8.674;2022-11-13T20:21:25;5.50;99.90
21770;DHT22;11046;49.558;8.674;2022-11-13T20:24:44;5.60;99.90
21770;DHT22;11046;49.558;8.674;2022-11-13T20:28:04;5.60;99.90
21770;DHT22;11046;49.558;8.674;2022-11-13T20:31:23;5.70;99.90
21770;DHT22;11046;49.558;8.674;2022-11-13T20:34:42;5.60;99.90
21770;DHT22;11046;49.558;8.674;2022-11-13T20:38:01;5.70;99.90
21770;DHT22;11046;49.558;8.674;2022-11-13T20:41:22;5.70;99.90
21770;DHT22;11046;49.558;8.674;2022-11-13T20:44:42;5.70;99.90
21770;DHT22;11046;49.558;8.674;2022-11-13T20:48:01;5.80;99.90
21770;DHT22;11046;49.558;8.674;2022-11-13T20:51:24;5.80;99.90
21770;DHT22;11046;49.558;8.674;2022-11-13T20:54:43;5.90;99.90
21770;DHT22;11046;49.558;8.674;2022-11-13T20:58:02;5.90;99.90
21770;DHT22;11046;49.558;8.674;2022-11-13T21:01:23;5.90;99.90
21770;DHT22;11046;49.558;8.674;2022-11-13T21:04:43;5.90;99.90
21770;DHT22;11046;49.558;8.674;2022-11-13T21:08:02;5.90;99.90
21770;DHT22;11046;49.558;8.674;2022-11-13T21:11:22;5.90;99.90
21770;DHT22;11046;49.558;8.674;2022-11-13T21:14:45;5.80;99.90
21770;DHT22;11046;49.558;8.674;2022-11-13T21:18:04;5.80;99.90
21770;DHT22;11046;49.558;8.674;2022-11-13T21:21:24;5.70;99.90
21770;DHT22;11046;49.558;8.674;2022-11-13T21:24:44;5.50;99.90
21770;DHT22;11046;49.558;8.674;2022-11-13T21:28:03;5.40;99.90
21770;DHT22;11046;49.558;8.674;2022-11-13T21:31:23;5.40;99.90
21770;DHT22;11046;49.558;8.674;2022-11-13T21:34:42;5.30;99.90
21770;DHT22;11046;49.558;8.674;2022-11-13T21:38:03;5.20;99.90
21770;DHT22;11046;49.558;8.674;2022-11-13T21:41:23;5.20;99.90
21770;DHT22;11046;49.558;8.674;2022-11-13T21:44:43;5.00;99.90
21770;DHT22;11046;49.558;8.674;2022-11-13T21:48:02;4.90;99.90
21770;DHT22;11046;49.558;8.674;2022-11-13T21:51:22;4.80;99.90
21770;DHT22;11046;49.558;8.674;2022-11-13T21:54:41;4.80;99.90
21770;DHT22;11046;49.558;8.674;2022-11-13T21:58:00;4.70;99.90
21770;DHT22;11046;49.558;8.674;2022-11-13T22:01:20;4.70;99.90
21770;DHT22;11046;49.558;8.674;2022-11-13T22:04:39;4.70;99.90
21770;DHT22;11046;49.558;8.674;2022-11-13T22:07:58;4.70;99.90
21770;DHT22;11046;49.558;8.674;2022-11-13T22:11:17;4.60;99.90
21770;DHT22;11046;49.558;8.674;2022-11-13T22:14:36;4.60;99.90
21770;DHT22;11046;49.558;8.674;2022-11-13T22:17:55;4.50;99.90
21770;DHT22;11046;49.558;8.674;2022-11-13T22:21:14;4.40;99.90
21770;DHT22;11046;49.558;8.674;2022-11-13T22:24:33;4.40;99.90
21770;DHT22;11046;49.558;8.674;2022-11-13T22:27:52;4.30;99.90
21770;DHT22;11046;49.558;8.674;2022-11-13T22:31:17;4.30;99.90
21770;DHT22;11046;49.558;8.674;2022-11-13T22:34:37;4.20;99.90
21770;DHT22;11046;49.558;8.674;2022-11-13T22:37:56;4.20;99.90
21770;DHT22;11046;49.558;8.674;2022-11-13T22:41:18;4.20;99.90
21770;DHT22;11046;49.558;8.674;2022-11-13T22:44:38;4.10;99.90
21770;DHT22;11046;49.558;8.674;2022-11-13T22:47:57;4.10;99.90
21770;DHT22;11046;49.558;8.674;2022-11-13T22:51:18;4.00;99.90
21770;DHT22;11046;49.558;8.674;2022-11-13T22:54:38;4.00;99.90
21770;DHT22;11046;49.558;8.674;2022-11-13T22:57:57;4.00;99.90
21770;DHT22;11046;49.558;8.674;2022-11-13T23:01:20;3.90;99.90
21770;DHT22;11046;49.558;8.674;2022-11-13T23:04:39;4.00;99.90
21770;DHT22;11046;49.558;8.674;2022-11-13T23:07:58;4.00;99.90
21770;DHT22;11046;49.558;8.674;2022-11-13T23:11:26;4.10;99.90
21770;DHT22;11046;49.558;8.674;2022-11-13T23:14:45;4.10;99.90